createdAt,value
2022-09-25T00:01:13.886Z,6.81
2022-09-25T00:03:49.531Z,6.85
2022-09-25T00:06:22.448Z,6.81
2022-09-25T00:08:50.323Z,6.75
2022-09-25T00:11:20.813Z,6.70
2022-09-25T00:13:48.791Z,6.67
2022-09-25T00:16:19.425Z,6.69
2022-09-25T00:19:05.605Z,6.73
2022-09-25T00:21:33.438Z,6.76
2022-09-25T00:24:03.355Z,6.74
2022-09-25T00:26:33.541Z,6.71
2022-09-25T00:29:00.999Z,6.71
2022-09-25T00:31:29.261Z,6.70
2022-09-25T00:33:58.366Z,6.74
2022-09-25T00:36:26.273Z,6.76
2022-09-25T00:38:54.168Z,6.73
2022-09-25T00:41:23.412Z,6.66
2022-09-25T00:43:53.181Z,6.63
2022-09-25T00:46:22.425Z,6.63
2022-09-25T00:49:08.075Z,6.61
2022-09-25T00:51:46.455Z,6.59
2022-09-25T00:54:17.708Z,6.54
2022-09-25T00:56:48.539Z,6.53
2022-09-25T00:59:22.592Z,6.54
2022-09-25T01:01:49.817Z,6.50
2022-09-25T01:04:19.534Z,6.44
2022-09-25T01:06:46.622Z,6.45
2022-09-25T01:09:13.601Z,6.45
2022-09-25T01:11:40.565Z,6.46
2022-09-25T01:14:09.670Z,6.49
2022-09-25T01:16:50.863Z,6.49
2022-09-25T01:20:03.245Z,6.50
2022-09-25T01:22:55.604Z,6.50
2022-09-25T01:25:57.634Z,6.44
2022-09-25T01:28:49.972Z,6.45
2022-09-25T01:31:38.210Z,6.40
2022-09-25T01:34:50.778Z,6.37
2022-09-25T01:37:29.546Z,6.38
2022-09-25T01:40:28.743Z,6.38
2022-09-25T01:43:09.524Z,6.34
2022-09-25T01:45:40.861Z,6.34
2022-09-25T01:48:10.361Z,6.32
2022-09-25T01:50:47.511Z,6.31
2022-09-25T01:53:20.380Z,6.33
2022-09-25T01:55:52.570Z,6.36
2022-09-25T01:58:33.949Z,6.34
2022-09-25T02:01:15.573Z,6.26
2022-09-25T02:03:56.931Z,6.19
2022-09-25T02:06:25.078Z,6.17
2022-09-25T02:09:00.828Z,6.15
2022-09-25T02:11:35.204Z,6.10
2022-09-25T02:14:08.530Z,6.06
2022-09-25T02:16:43.186Z,6.03
2022-09-25T02:19:32.353Z,6.02
2022-09-25T02:21:59.483Z,5.97
2022-09-25T02:24:41.302Z,5.95
2022-09-25T02:27:08.290Z,5.92
2022-09-25T02:29:35.276Z,5.87
2022-09-25T02:32:08.010Z,5.89
2022-09-25T02:34:36.334Z,5.85
2022-09-25T02:37:09.761Z,5.85
2022-09-25T02:39:36.722Z,5.87
2022-09-25T02:42:25.421Z,5.87
2022-09-25T02:45:17.573Z,5.88
2022-09-25T02:47:51.564Z,5.88
2022-09-25T02:50:43.199Z,5.82
2022-09-25T02:53:38.450Z,5.77
2022-09-25T02:56:20.584Z,5.70
2022-09-25T02:59:02.069Z,5.63
2022-09-25T03:01:34.758Z,5.51
2022-09-25T03:04:04.938Z,5.43
2022-09-25T03:06:32.523Z,5.38
2022-09-25T03:09:01.507Z,5.33
2022-09-25T03:11:29.124Z,5.27
2022-09-25T03:14:01.840Z,5.26
2022-09-25T03:16:45.636Z,5.28
2022-09-25T03:19:13.734Z,5.26
2022-09-25T03:21:41.023Z,5.24
2022-09-25T03:24:09.550Z,5.22
2022-09-25T03:26:36.626Z,5.24
2022-09-25T03:29:03.942Z,5.27
2022-09-25T03:31:32.215Z,5.24
2022-09-25T03:34:00.141Z,5.20
2022-09-25T03:36:29.315Z,5.16
2022-09-25T03:38:58.526Z,5.17
2022-09-25T03:41:28.667Z,5.20
2022-09-25T03:43:56.419Z,5.22
2022-09-25T03:46:26.599Z,5.22
2022-09-25T03:48:54.934Z,5.19
2022-09-25T03:51:23.149Z,5.16
2022-09-25T03:53:51.279Z,5.14
2022-09-25T03:56:21.087Z,5.13
2022-09-25T03:58:49.872Z,5.14
2022-09-25T04:01:19.017Z,5.14
2022-09-25T04:03:47.026Z,5.13
2022-09-25T04:06:17.897Z,5.13
2022-09-25T04:08:46.071Z,5.13
2022-09-25T04:11:15.143Z,5.11
2022-09-25T04:13:43.677Z,5.09
2022-09-25T04:16:12.617Z,5.08
2022-09-25T04:18:41.351Z,5.07
2022-09-25T04:21:10.706Z,5.10
2022-09-25T04:23:38.393Z,5.08
2022-09-25T04:26:06.270Z,5.06
2022-09-25T04:28:33.673Z,5.08
2022-09-25T04:31:02.151Z,5.08
2022-09-25T04:33:48.258Z,5.02
2022-09-25T04:36:18.624Z,5.00
2022-09-25T04:38:46.730Z,5.04
2022-09-25T04:41:19.632Z,5.05
2022-09-25T04:43:47.307Z,5.07
2022-09-25T04:46:21.119Z,5.11
2022-09-25T04:48:49.711Z,5.14
2022-09-25T04:51:16.748Z,5.18
2022-09-25T04:53:43.671Z,5.20
2022-09-25T04:56:15.823Z,5.15
2022-09-25T04:58:49.119Z,5.10
2022-09-25T05:01:18.708Z,5.09
2022-09-25T05:03:49.772Z,5.12
2022-09-25T05:06:16.827Z,5.13
2022-09-25T05:08:43.789Z,5.13
2022-09-25T05:11:11.269Z,5.17
2022-09-25T05:13:40.940Z,5.21
2022-09-25T05:16:08.990Z,5.26
2022-09-25T05:18:41.344Z,5.25
2022-09-25T05:21:09.712Z,5.25
2022-09-25T05:23:36.793Z,5.28
2022-09-25T05:26:06.870Z,5.32
2022-09-25T05:28:34.172Z,5.35
2022-09-25T05:31:03.211Z,5.39
2022-09-25T05:33:32.462Z,5.45
2022-09-25T05:36:07.189Z,5.50
2022-09-25T05:38:39.758Z,5.56
2022-09-25T05:41:10.628Z,5.59
2022-09-25T05:43:44.083Z,5.67
2022-09-25T05:46:13.027Z,5.74
2022-09-25T05:48:40.529Z,5.84
2022-09-25T05:51:08.622Z,5.91
2022-09-25T05:53:36.516Z,5.99
2022-09-25T05:56:05.323Z,6.09
2022-09-25T05:58:35.294Z,6.14
2022-09-25T06:01:07.952Z,6.19
2022-09-25T06:03:35.702Z,6.24
2022-09-25T06:06:03.914Z,6.27
2022-09-25T06:08:31.656Z,6.32
2022-09-25T06:11:00.939Z,6.37
2022-09-25T06:13:31.606Z,6.45
2022-09-25T06:15:58.841Z,6.52
2022-09-25T06:18:26.473Z,6.61
2022-09-25T06:21:01.255Z,6.70
2022-09-25T06:23:29.026Z,6.75
2022-09-25T06:26:03.219Z,6.81
2022-09-25T06:28:32.421Z,6.88
2022-09-25T06:31:01.436Z,6.97
2022-09-25T06:33:28.648Z,7.05
2022-09-25T06:35:55.697Z,7.16
2022-09-25T06:38:22.726Z,7.26
2022-09-25T06:40:50.054Z,7.33
2022-09-25T06:43:17.399Z,7.42
2022-09-25T06:45:44.459Z,7.51
2022-09-25T06:48:13.379Z,7.62
2022-09-25T06:50:46.695Z,7.71
2022-09-25T06:53:15.748Z,7.82
2022-09-25T06:55:46.996Z,7.91
2022-09-25T06:58:17.561Z,8.00
2022-09-25T07:00:51.333Z,8.08
2022-09-25T07:03:37.873Z,8.14
2022-09-25T07:06:07.919Z,8.12
2022-09-25T07:08:36.446Z,8.11
2022-09-25T07:11:04.210Z,8.11
2022-09-25T07:13:34.903Z,8.13
2022-09-25T07:16:07.649Z,8.12
2022-09-25T07:18:34.946Z,8.13
2022-09-25T07:21:08.016Z,8.15
2022-09-25T07:23:35.884Z,8.21
2022-09-25T07:26:10.590Z,8.28
2022-09-25T07:28:40.634Z,8.36
2022-09-25T07:31:22.924Z,8.45
2022-09-25T07:33:50.258Z,8.52
2022-09-25T07:36:18.180Z,8.60
2022-09-25T07:38:53.668Z,8.68
2022-09-25T07:41:22.433Z,8.78
2022-09-25T07:44:11.915Z,8.84
2022-09-25T07:46:45.491Z,8.86
2022-09-25T07:49:12.657Z,8.90
2022-09-25T07:51:39.682Z,8.91
2022-09-25T07:54:07.596Z,8.95
2022-09-25T07:56:34.826Z,8.96
2022-09-25T07:59:02.586Z,8.95
2022-09-25T08:01:29.656Z,9.00
2022-09-25T08:03:56.921Z,9.08
2022-09-25T08:06:24.183Z,9.16
2022-09-25T08:08:51.200Z,9.26
2022-09-25T08:11:18.375Z,9.35
2022-09-25T08:13:45.929Z,9.41
2022-09-25T08:16:18.641Z,9.50
2022-09-25T08:18:47.067Z,9.62
2022-09-25T08:21:16.714Z,9.74
2022-09-25T08:23:49.210Z,9.85
2022-09-25T08:26:23.228Z,9.93
2022-09-25T08:28:53.446Z,10.01
2022-09-25T08:31:21.859Z,10.07
2022-09-25T08:33:50.329Z,10.17
2022-09-25T08:36:18.124Z,10.29
2022-09-25T08:38:45.237Z,10.41
2022-09-25T08:41:18.623Z,10.60
2022-09-25T08:44:09.818Z,10.78
2022-09-25T08:47:09.015Z,10.97
2022-09-25T08:49:45.214Z,11.13
2022-09-25T08:52:21.857Z,11.23
2022-09-25T08:54:54.646Z,11.34
2022-09-25T08:57:43.697Z,11.46
2022-09-25T09:00:22.569Z,11.59
2022-09-25T09:02:55.353Z,11.69
2022-09-25T09:05:40.733Z,11.71
2022-09-25T09:08:14.179Z,11.83
2022-09-25T09:11:10.006Z,12.00
2022-09-25T09:13:54.755Z,12.14
2022-09-25T09:16:21.795Z,12.29
2022-09-25T09:18:57.156Z,12.42
2022-09-25T09:21:46.730Z,12.53
2022-09-25T09:24:35.042Z,12.72
2022-09-25T09:27:24.378Z,12.93
2022-09-25T09:30:20.278Z,13.19
2022-09-25T09:33:17.522Z,13.40
2022-09-25T09:35:47.914Z,13.51
2022-09-25T09:38:28.205Z,13.54
2022-09-25T09:41:05.043Z,13.56
2022-09-25T09:43:57.640Z,13.71
2022-09-25T09:46:28.287Z,13.86
2022-09-25T09:49:34.937Z,13.90
2022-09-25T09:52:11.051Z,14.09
2022-09-25T09:54:52.712Z,14.25
2022-09-25T09:57:32.877Z,14.37
2022-09-25T10:00:11.873Z,14.55
2022-09-25T10:03:01.886Z,14.75
2022-09-25T10:05:35.104Z,14.92
2022-09-25T10:08:02.387Z,15.33
2022-09-25T10:10:36.903Z,15.79
2022-09-25T10:13:11.060Z,16.42
2022-09-25T10:16:04.525Z,17.04
2022-09-25T10:18:40.557Z,17.52
2022-09-25T10:21:18.085Z,17.57
2022-09-25T10:23:50.697Z,17.65
2022-09-25T10:26:29.887Z,17.69
2022-09-25T10:29:02.171Z,18.22
2022-09-25T10:31:33.283Z,18.62
2022-09-25T10:34:05.904Z,19.07
2022-09-25T10:36:42.868Z,19.39
2022-09-25T10:39:49.178Z,19.66
2022-09-25T10:42:40.524Z,19.99
2022-09-25T10:45:40.427Z,19.89
2022-09-25T10:48:44.213Z,18.98
2022-09-25T10:51:12.168Z,18.75
2022-09-25T10:53:39.172Z,18.68
2022-09-25T10:56:12.551Z,18.95
2022-09-25T10:58:52.490Z,18.57
2022-09-25T11:01:19.787Z,18.36
2022-09-25T11:03:51.063Z,18.30
2022-09-25T11:06:25.944Z,18.51
2022-09-25T11:09:12.494Z,18.40
2022-09-25T11:11:40.698Z,18.05
2022-09-25T11:14:18.926Z,17.92
2022-09-25T11:16:52.506Z,18.00
2022-09-25T11:19:30.837Z,18.22
2022-09-25T11:22:16.068Z,18.31
2022-09-25T11:25:11.421Z,18.75
2022-09-25T11:27:53.042Z,19.57
2022-09-25T11:30:22.248Z,19.55
2022-09-25T11:33:15.264Z,19.32
2022-09-25T11:35:52.773Z,19.67
2022-09-25T11:38:59.862Z,19.84
2022-09-25T11:41:38.393Z,20.29
2022-09-25T11:44:32.495Z,20.82
2022-09-25T11:47:33.653Z,20.56
2022-09-25T11:50:01.762Z,20.16
2022-09-25T11:52:47.786Z,19.95
2022-09-25T11:55:34.329Z,19.41
2022-09-25T11:58:20.352Z,18.76
2022-09-25T12:01:18.471Z,18.60
2022-09-25T12:04:20.483Z,18.94
2022-09-25T12:06:54.681Z,19.45
2022-09-25T12:09:43.466Z,19.75
2022-09-25T12:12:30.920Z,20.23
2022-09-25T12:15:27.511Z,20.60
2022-09-25T12:18:22.979Z,20.98
2022-09-25T12:21:03.693Z,21.22
2022-09-25T12:23:58.685Z,21.50
2022-09-25T12:26:44.623Z,21.60
2022-09-25T12:29:28.644Z,21.70
2022-09-25T12:32:28.215Z,21.06
2022-09-25T12:35:28.728Z,20.19
2022-09-25T12:38:05.187Z,19.26
2022-09-25T12:40:59.036Z,18.72
2022-09-25T12:43:52.090Z,18.42
2022-09-25T12:46:42.120Z,18.23
2022-09-25T12:49:12.085Z,18.53
2022-09-25T12:51:43.280Z,19.01
2022-09-25T12:54:25.885Z,18.78
2022-09-25T12:57:13.619Z,18.35
2022-09-25T12:59:51.978Z,17.98
2022-09-25T13:03:00.485Z,17.69
2022-09-25T13:05:34.728Z,17.52
2022-09-25T13:08:44.749Z,17.42
2022-09-25T13:11:38.679Z,17.26
2022-09-25T13:14:32.470Z,17.11
2022-09-25T13:17:00.926Z,17.09
2022-09-25T13:19:32.743Z,17.14
2022-09-25T13:22:20.317Z,17.11
2022-09-25T13:25:13.887Z,17.13
2022-09-25T13:27:46.280Z,17.10
2022-09-25T13:30:25.941Z,17.06
2022-09-25T13:32:55.916Z,17.17
2022-09-25T13:35:23.719Z,17.31
2022-09-25T13:37:54.749Z,17.27
2022-09-25T13:40:42.332Z,17.25
2022-09-25T13:43:27.712Z,17.18
2022-09-25T13:46:17.414Z,17.22
2022-09-25T13:48:44.592Z,17.20
2022-09-25T13:51:17.925Z,17.17
2022-09-25T13:53:58.590Z,17.13
2022-09-25T13:56:41.082Z,16.99
2022-09-25T13:59:14.610Z,16.90
2022-09-25T14:01:46.719Z,16.84
2022-09-25T14:04:13.759Z,16.76
2022-09-25T14:06:42.732Z,16.67
2022-09-25T14:09:19.450Z,16.62
2022-09-25T14:12:02.496Z,16.52
2022-09-25T14:14:52.375Z,16.49
2022-09-25T14:17:21.985Z,16.43
2022-09-25T14:19:52.520Z,16.38
2022-09-25T14:22:29.178Z,16.35
2022-09-25T14:24:56.265Z,16.34
2022-09-25T14:27:27.391Z,16.31
2022-09-25T14:30:13.609Z,16.29
2022-09-25T14:32:59.948Z,16.27
2022-09-25T14:35:42.174Z,16.34
2022-09-25T14:38:48.098Z,16.41
2022-09-25T14:41:22.537Z,16.36
2022-09-25T14:44:25.247Z,16.33
2022-09-25T14:46:56.758Z,16.35
2022-09-25T14:49:38.247Z,16.34
2022-09-25T14:52:14.640Z,16.32
2022-09-25T14:54:45.973Z,16.27
2022-09-25T14:57:20.793Z,16.23
2022-09-25T14:59:56.090Z,16.16
2022-09-25T15:02:40.045Z,16.13
2022-09-25T15:05:32.742Z,16.09
2022-09-25T15:08:02.038Z,15.99
2022-09-25T15:10:38.527Z,15.87
2022-09-25T15:13:20.292Z,15.79
2022-09-25T15:16:12.717Z,15.72
2022-09-25T15:18:42.211Z,15.65
2022-09-25T15:21:21.188Z,15.59
2022-09-25T15:23:48.257Z,15.55
2022-09-25T15:26:18.403Z,15.49
2022-09-25T15:28:45.895Z,15.45
2022-09-25T15:31:13.617Z,15.38
2022-09-25T15:33:41.627Z,15.34
2022-09-25T15:36:16.868Z,15.30
2022-09-25T15:38:44.239Z,15.28
2022-09-25T15:41:15.549Z,15.23
2022-09-25T15:43:42.839Z,15.20
2022-09-25T15:46:09.775Z,15.16
2022-09-25T15:49:08.240Z,15.12
2022-09-25T15:51:36.163Z,15.08
2022-09-25T15:54:18.573Z,15.02
2022-09-25T15:56:50.725Z,14.97
2022-09-25T15:59:30.460Z,14.91
2022-09-25T16:02:16.914Z,14.84
2022-09-25T16:04:51.391Z,14.78
2022-09-25T16:07:28.543Z,14.71
2022-09-25T16:09:58.844Z,14.69
2022-09-25T16:12:26.299Z,14.67
2022-09-25T16:14:54.862Z,14.66
2022-09-25T16:17:22.373Z,14.66
2022-09-25T16:20:06.514Z,14.64
2022-09-25T16:22:45.349Z,14.62
2022-09-25T16:25:20.714Z,14.61
2022-09-25T16:27:48.147Z,14.55
2022-09-25T16:30:23.758Z,14.50
2022-09-25T16:32:55.808Z,14.46
2022-09-25T16:36:08.230Z,14.40
2022-09-25T16:38:34.662Z,14.32
2022-09-25T16:41:11.788Z,14.26
2022-09-25T16:43:39.354Z,14.21
2022-09-25T16:46:25.265Z,14.16
2022-09-25T16:49:00.674Z,14.10
2022-09-25T16:51:29.781Z,14.06
2022-09-25T16:54:00.515Z,14.02
2022-09-25T16:56:30.345Z,13.97
2022-09-25T16:58:58.809Z,13.92
2022-09-25T17:01:27.787Z,13.89
2022-09-25T17:03:59.281Z,13.87
2022-09-25T17:06:29.937Z,13.83
2022-09-25T17:08:59.678Z,13.81
2022-09-25T17:11:27.021Z,13.79
2022-09-25T17:13:54.153Z,13.76
2022-09-25T17:16:21.287Z,13.72
2022-09-25T17:18:48.445Z,13.69
2022-09-25T17:21:16.286Z,13.65
2022-09-25T17:23:44.155Z,13.59
2022-09-25T17:26:19.983Z,13.54
2022-09-25T17:28:47.507Z,13.50
2022-09-25T17:31:19.730Z,13.46
2022-09-25T17:33:49.666Z,13.41
2022-09-25T17:36:16.940Z,13.37
2022-09-25T17:38:44.156Z,13.32
2022-09-25T17:41:40.971Z,13.30
2022-09-25T17:44:15.904Z,13.25
2022-09-25T17:47:03.494Z,13.20
2022-09-25T17:49:30.692Z,13.14
2022-09-25T17:51:58.291Z,13.13
2022-09-25T17:54:29.603Z,13.12
2022-09-25T17:56:57.060Z,13.09
2022-09-25T17:59:26.108Z,13.07
2022-09-25T18:01:53.316Z,13.06
2022-09-25T18:04:24.901Z,13.05
2022-09-25T18:06:52.519Z,13.03
2022-09-25T18:09:27.508Z,12.99
2022-09-25T18:11:56.054Z,12.95
2022-09-25T18:14:23.848Z,12.93
2022-09-25T18:16:50.871Z,12.92
2022-09-25T18:19:38.540Z,12.93
2022-09-25T18:22:21.255Z,12.95
2022-09-25T18:24:58.813Z,12.95
2022-09-25T18:27:31.940Z,12.92
2022-09-25T18:30:00.330Z,12.86
2022-09-25T18:32:27.993Z,12.82
2022-09-25T18:34:55.975Z,12.82
2022-09-25T18:37:23.164Z,12.85
2022-09-25T18:39:50.736Z,12.85
2022-09-25T18:42:18.073Z,12.84
2022-09-25T18:44:45.117Z,12.84
2022-09-25T18:47:13.420Z,12.81
2022-09-25T18:49:40.528Z,12.80
2022-09-25T18:52:07.887Z,12.80
2022-09-25T18:54:34.978Z,12.80
2022-09-25T18:57:02.440Z,12.80
2022-09-25T18:59:30.106Z,12.80
2022-09-25T19:02:00.182Z,12.78
2022-09-25T19:04:28.305Z,12.76
2022-09-25T19:06:55.788Z,12.71
2022-09-25T19:09:26.076Z,12.66
2022-09-25T19:11:55.153Z,12.64
2022-09-25T19:14:23.830Z,12.63
2022-09-25T19:16:52.762Z,12.60
2022-09-25T19:19:20.227Z,12.53
2022-09-25T19:21:47.704Z,12.47
2022-09-25T19:24:17.746Z,12.42
2022-09-25T19:26:45.719Z,12.37
2022-09-25T19:29:13.275Z,12.33
2022-09-25T19:31:40.906Z,12.33
2022-09-25T19:34:08.829Z,12.34
2022-09-25T19:36:36.524Z,12.31
2022-09-25T19:39:05.212Z,12.26
2022-09-25T19:41:35.563Z,12.20
2022-09-25T19:44:12.376Z,12.14
2022-09-25T19:46:45.724Z,12.10
2022-09-25T19:49:15.564Z,12.10
2022-09-25T19:51:43.179Z,12.11
2022-09-25T19:54:13.713Z,12.12
2022-09-25T19:56:41.937Z,12.12
2022-09-25T19:59:15.904Z,12.06
2022-09-25T20:01:44.037Z,11.96
2022-09-25T20:04:19.074Z,11.87
2022-09-25T20:06:49.835Z,11.81
2022-09-25T20:09:17.339Z,11.77
2022-09-25T20:11:46.194Z,11.71
2022-09-25T20:14:14.032Z,11.63
2022-09-25T20:16:41.508Z,11.58
2022-09-25T20:19:09.657Z,11.55
2022-09-25T20:21:38.633Z,11.49
2022-09-25T20:24:07.659Z,11.46
2022-09-25T20:26:35.987Z,11.41
2022-09-25T20:29:12.505Z,11.34
2022-09-25T20:31:42.668Z,11.29
2022-09-25T20:34:15.369Z,11.25
2022-09-25T20:36:43.542Z,11.19
2022-09-25T20:39:19.784Z,11.16
2022-09-25T20:41:48.980Z,11.13
2022-09-25T20:44:16.250Z,11.04
2022-09-25T20:46:43.205Z,10.99
2022-09-25T20:49:10.729Z,10.96
2022-09-25T20:51:37.880Z,10.94
2022-09-25T20:54:09.674Z,10.91
2022-09-25T20:56:38.623Z,10.85
2022-09-25T20:59:05.826Z,10.79
2022-09-25T21:01:36.147Z,10.76
2022-09-25T21:04:05.344Z,10.72
2022-09-25T21:06:34.295Z,10.70
2022-09-25T21:09:05.851Z,10.67
2022-09-25T21:11:33.383Z,10.64
2022-09-25T21:14:02.197Z,10.62
2022-09-25T21:16:32.614Z,10.60
2022-09-25T21:19:03.757Z,10.54
2022-09-25T21:21:33.201Z,10.51
2022-09-25T21:24:01.906Z,10.45
2022-09-25T21:26:30.826Z,10.41
2022-09-25T21:29:00.570Z,10.40
2022-09-25T21:31:41.062Z,10.39
2022-09-25T21:34:11.790Z,10.36
2022-09-25T21:36:38.802Z,10.33
2022-09-25T21:39:06.845Z,10.31
2022-09-25T21:41:34.233Z,10.29
2022-09-25T21:44:07.524Z,10.27
2022-09-25T21:46:34.739Z,10.22
2022-09-25T21:49:04.877Z,10.22
2022-09-25T21:51:38.643Z,10.18
2022-09-25T21:54:07.793Z,10.13
2022-09-25T21:56:35.536Z,10.10
2022-09-25T21:59:08.156Z,10.06
2022-09-25T22:01:39.704Z,10.03
2022-09-25T22:04:10.699Z,10.04
2022-09-25T22:06:41.298Z,10.00
2022-09-25T22:09:17.784Z,9.99
2022-09-25T22:11:46.224Z,9.98
2022-09-25T22:14:16.320Z,9.92
2022-09-25T22:16:46.284Z,9.89
2022-09-25T22:19:19.022Z,9.84
2022-09-25T22:21:48.558Z,9.78
2022-09-25T22:24:16.587Z,9.71
2022-09-25T22:26:45.438Z,9.66
2022-09-25T22:29:13.891Z,9.60
2022-09-25T22:31:43.712Z,9.57
2022-09-25T22:34:29.596Z,9.51
2022-09-25T22:36:59.917Z,9.44
2022-09-25T22:39:29.302Z,9.39
2022-09-25T22:41:56.474Z,9.37
2022-09-25T22:44:23.889Z,9.33
2022-09-25T22:46:51.581Z,9.30
2022-09-25T22:49:18.551Z,9.27
2022-09-25T22:51:45.641Z,9.22
2022-09-25T22:54:14.092Z,9.14
2022-09-25T22:56:42.106Z,9.01
2022-09-25T22:59:12.489Z,8.98
2022-09-25T23:01:44.564Z,8.98
2022-09-25T23:04:14.665Z,8.94
2022-09-25T23:06:41.676Z,8.90
2022-09-25T23:09:13.728Z,8.88
2022-09-25T23:11:41.481Z,8.89
2022-09-25T23:14:16.510Z,8.83
2022-09-25T23:16:45.017Z,8.78
2022-09-25T23:19:12.545Z,8.76
2022-09-25T23:21:40.121Z,8.77
2022-09-25T23:24:10.590Z,8.76
2022-09-25T23:26:38.117Z,8.77
2022-09-25T23:29:05.251Z,8.73
2022-09-25T23:31:33.337Z,8.67
2022-09-25T23:34:01.636Z,8.61
2022-09-25T23:36:30.130Z,8.57
2022-09-25T23:38:59.902Z,8.52
2022-09-25T23:41:27.529Z,8.50
2022-09-25T23:43:55.463Z,8.47
2022-09-25T23:46:25.210Z,8.43
2022-09-25T23:48:52.837Z,8.40
2022-09-25T23:51:22.412Z,8.37
2022-09-25T23:53:49.835Z,8.38
2022-09-25T23:56:19.513Z,8.38
2022-09-25T23:58:47.680Z,8.36
